AO2

Tweets about a recent trend: AO2

RT @KSFO_wx: #KSFO 110856Z 24020G29KT 10SM FEW028 SCT035 SCT040 13/08 A2977 RMK AO2 PK WND 24041/0806 SLP081 T01330083 53005 $
#PHNL 110853Z 34006KT 10SM FEW037 SCT250 22/17 A3010 RMK AO2 SLP191 T02170172 51022
#KLOT 110855Z AUTO 22006KT 10SM SCT090 BKN110 M03/M04 A3000 RMK AO2 T10341036
#PANC 110853Z 13003KT 1/8SM R07R/0800V1000FT FZFG VV001 M12/M13 A3009 RMK AO2 SLP194 60000 I1001 I3001 T11171128 410941161 56011 $
#KLAF 110854Z AUTO 17003KT 6SM BR CLR M02/M03 A3008 RMK AO2 SLP188 T10221028 51009
#KMDW 110853Z 22006KT 10SM SCT080 OVC110 M03/M07 A2998 RMK AO2 SLP160 T10281067 50006
#KSTL 110851Z 08007KT 10SM FEW150 BKN250 01/M02 A3001 RMK AO2 SLP163 T00111022 56014
#KDFW 110853Z 18016G24KT 10SM CLR 17/14 A2990 RMK AO2 SLP117 T01670144 56019
#KATL 110852Z 19005KT 10SM FEW032 SCT065 OVC090 12/07 A3028 RMK AO2 SLP253 T01220067 56003
#KPBI 110853Z 07013KT 10SM SCT044 BKN065 21/12 A3032 RMK AO2 SLP265 T02110117 58006
#KMIA 110853Z 09007KT 10SM FEW030 SCT045 BKN070 19/14 A3029 RMK AO2 RAE00 SLP257 P0000 60000 T01940139 58004
#KLAX 110853Z 24012KT 10SM FEW007 BKN012 OVC038 14/14 A3004 RMK AO2 RAB0759E10 SLP170 P0000 60002 T01440139 58015
#KORD 110851Z 25005KT 10SM BKN110 OVC150 M03/M07 A2996 RMK AO2 SLP151 T10331067 50006
#KJFK 110851Z 20018KT 6SM -RA OVC017 08/06 A3020 RMK AO2 PK WND 21028/0834 SLP225 P0012 60018 T00830056 58004
#KSFO 110856Z 24020G29KT 10SM FEW028 SCT035 SCT040 13/08 A2977 RMK AO2 PK WND 24041/0806 SLP081 T01330083 53005 $
KOSH 110853Z AUTO 24007G15KT 10SM BKN110 M10/M14 A2990 RMK AO2 SLP142 T11001144 50021
KORD 110851Z 25005KT 10SM BKN110 OVC150 M03/M07 A2996 RMK AO2 SLP151 T10331067 50006
KATL 110852Z 19005KT 10SM FEW032 SCT065 OVC090 12/07 A3028 RMK AO2 SLP253 T01220067 56003
KJFK 110851Z 20018KT 6SM -RA OVC017 08/06 A3020 RMK AO2 PK WND 21028/0834 SLP225 P0012 60018 T00830056 58004
KONT 110853Z 18005KT 10SM BKN005 OVC011 11/11 A3004 RMK AO2 RAE24B41E51 SLP171 BKN V SCT PRESENT WX VCSH P0007 60009 T01110111 58013 $..
KSFO 110856Z 24020G29KT 10SM FEW028 SCT035 SCT040 13/08 A2977 RMK AO2 PK WND 24041/0806 SLP081 T01330083 53005 $
KJFK 110851Z 20018KT 6SM -RA OVC017 08/06 A3020 RMK AO2 PK WND 21028/0834 SLP225 P0012 60018 T00830056 58004
KLAX 110853Z 24012KT 10SM FEW007 BKN012 OVC038 14/14 A3004 RMK AO2 RAB0759E10 SLP170 P0000 60002 T01440139 58015
#KLOT 110835Z AUTO 21004KT 10SM BKN100 BKN120 M03/M04 A2999 RMK AO2 T10311040
#KJFK 110825Z 21018G24KT 6SM RA SCT014 OVC029 09/06 A3021 RMK AO2 P0007 T00890056